createdAt,value
2019-03-24T00:00:35.716Z,34.45
2019-03-24T00:03:05.688Z,25.37
2019-03-24T00:05:35.206Z,28.50
2019-03-24T00:08:04.017Z,27.60
2019-03-24T00:10:34.404Z,26.42
2019-03-24T00:13:04.541Z,27.95
2019-03-24T00:15:33.322Z,26.52
2019-03-24T00:18:03.414Z,18.73
2019-03-24T00:20:32.200Z,22.30
2019-03-24T00:23:00.946Z,14.25
2019-03-24T00:25:29.733Z,22.93
2019-03-24T00:27:59.088Z,28.90
2019-03-24T00:30:27.673Z,25.45
2019-03-24T00:32:56.465Z,27.93
2019-03-24T00:35:26.479Z,31.35
2019-03-24T00:37:56.537Z,19.30
2019-03-24T00:40:25.390Z,32.73
2019-03-24T00:42:54.153Z,17.02
2019-03-24T00:45:22.626Z,23.10
2019-03-24T00:47:51.141Z,20.80
2019-03-24T00:50:19.622Z,19.70
2019-03-24T00:52:48.344Z,30.95
2019-03-24T00:55:17.084Z,24.43
2019-03-24T00:57:45.619Z,15.63
2019-03-24T01:00:14.777Z,30.57
2019-03-24T01:02:43.288Z,26.30
2019-03-24T01:05:13.089Z,27.48
2019-03-24T01:07:41.945Z,24.45
2019-03-24T01:10:10.848Z,19.90
2019-03-24T01:12:39.455Z,34.48
2019-03-24T01:15:09.025Z,23.52
2019-03-24T01:17:38.714Z,18.45
2019-03-24T01:20:08.308Z,19.67
2019-03-24T01:22:37.341Z,20.37
2019-03-24T01:25:06.637Z,15.68
2019-03-24T01:27:35.455Z,20.52
2019-03-24T01:30:06.831Z,19.27
2019-03-24T01:32:35.904Z,27.27
2019-03-24T01:35:06.262Z,25.82
2019-03-24T01:37:34.966Z,25.08
2019-03-24T01:40:04.277Z,21.77
2019-03-24T01:42:33.080Z,19.65
2019-03-24T01:45:02.033Z,24.37
2019-03-24T01:47:30.825Z,25.90
2019-03-24T01:49:59.638Z,25.05
2019-03-24T01:52:28.417Z,21.27
2019-03-24T01:54:57.437Z,12.95
2019-03-24T01:57:25.907Z,20.00
2019-03-24T01:59:54.761Z,17.02
2019-03-24T02:02:23.215Z,16.17
2019-03-24T02:04:51.741Z,26.95
2019-03-24T02:07:20.273Z,28.17
2019-03-24T02:09:48.721Z,26.95
2019-03-24T02:12:17.462Z,23.95
2019-03-24T02:14:46.381Z,26.80
2019-03-24T02:17:15.350Z,17.65
2019-03-24T02:19:43.849Z,26.97
2019-03-24T02:22:12.659Z,24.67
2019-03-24T02:24:43.688Z,27.70
2019-03-24T02:27:12.397Z,30.08
2019-03-24T02:29:40.968Z,31.48
2019-03-24T02:32:09.490Z,22.87
2019-03-24T02:34:38.281Z,21.75
2019-03-24T02:37:07.923Z,20.30
2019-03-24T02:39:36.375Z,21.52
2019-03-24T02:42:05.470Z,19.17
2019-03-24T02:44:34.024Z,21.12
2019-03-24T02:47:02.854Z,21.95
2019-03-24T02:49:31.501Z,23.38
2019-03-24T02:52:01.037Z,27.67
2019-03-24T02:54:30.749Z,25.95
2019-03-24T02:56:59.231Z,32.67
2019-03-24T02:59:27.999Z,17.17
2019-03-24T03:01:57.219Z,21.75
2019-03-24T03:04:27.409Z,24.80
2019-03-24T03:06:56.134Z,16.87
2019-03-24T03:09:25.040Z,21.40
2019-03-24T03:11:53.875Z,21.25
2019-03-24T03:14:24.207Z,26.82
2019-03-24T03:16:53.030Z,16.67
2019-03-24T03:19:21.547Z,30.50
2019-03-24T03:21:50.104Z,19.37
2019-03-24T03:24:19.751Z,18.48
2019-03-24T03:26:48.603Z,18.85
2019-03-24T03:29:17.301Z,25.25
2019-03-24T03:31:45.810Z,22.32
2019-03-24T03:34:14.695Z,23.87
2019-03-24T03:36:43.523Z,27.00
2019-03-24T03:39:13.966Z,25.17
2019-03-24T03:41:45.038Z,27.32
2019-03-24T03:44:13.755Z,25.08
2019-03-24T03:46:52.682Z,15.40
2019-03-24T03:49:16.794Z,20.20
2019-03-24T03:51:45.485Z,27.32
2019-03-24T03:54:13.957Z,21.27
2019-03-24T03:56:42.482Z,16.50
2019-03-24T03:59:11.180Z,23.27
2019-03-24T04:01:39.992Z,25.08
2019-03-24T04:04:11.106Z,30.12
2019-03-24T04:06:39.967Z,32.38
2019-03-24T04:09:08.763Z,24.20
2019-03-24T04:11:37.589Z,27.00
2019-03-24T04:14:06.057Z,21.68
2019-03-24T04:16:36.925Z,20.52
2019-03-24T04:19:05.471Z,7.92
2019-03-24T04:21:35.140Z,22.48
2019-03-24T04:24:04.002Z,24.90
2019-03-24T04:26:32.886Z,11.12
2019-03-24T04:29:01.392Z,21.48
2019-03-24T04:31:29.866Z,9.73
2019-03-24T04:33:58.383Z,25.62
2019-03-24T04:36:26.844Z,25.55
2019-03-24T04:38:55.407Z,19.95
2019-03-24T04:41:24.684Z,26.00
2019-03-24T04:43:53.187Z,17.48
2019-03-24T04:46:22.042Z,12.18
2019-03-24T04:48:50.820Z,27.77
2019-03-24T04:51:19.575Z,25.43
2019-03-24T04:53:48.325Z,16.25
2019-03-24T04:56:17.073Z,23.62
2019-03-24T04:58:45.847Z,25.35
2019-03-24T05:01:14.789Z,31.48
2019-03-24T05:03:43.234Z,22.15
2019-03-24T05:06:12.771Z,20.32
2019-03-24T05:08:41.948Z,29.92
2019-03-24T05:11:13.101Z,17.42
2019-03-24T05:13:43.393Z,32.40
2019-03-24T05:16:12.167Z,22.65
2019-03-24T05:18:40.957Z,34.08
2019-03-24T05:21:09.411Z,19.37
2019-03-24T05:23:37.945Z,26.45
2019-03-24T05:26:09.566Z,21.90
2019-03-24T05:28:38.253Z,15.85
2019-03-24T05:31:06.813Z,28.62
2019-03-24T05:33:36.581Z,21.15
2019-03-24T05:36:06.802Z,25.40
2019-03-24T05:38:35.662Z,22.73
2019-03-24T05:41:04.155Z,21.48
2019-03-24T05:43:32.930Z,23.90
2019-03-24T05:46:01.655Z,22.45
2019-03-24T05:48:30.175Z,30.97
2019-03-24T05:50:58.881Z,23.77
2019-03-24T05:53:27.373Z,24.60
2019-03-24T05:55:57.430Z,13.45
2019-03-24T05:58:25.878Z,27.67
2019-03-24T06:00:54.357Z,26.87
2019-03-24T06:03:22.976Z,23.30
2019-03-24T06:05:51.836Z,23.40
2019-03-24T06:08:20.585Z,30.43
2019-03-24T06:10:49.062Z,26.30
2019-03-24T06:13:17.975Z,25.43
2019-03-24T06:15:46.991Z,36.77
2019-03-24T06:18:16.602Z,25.45
2019-03-24T06:20:46.379Z,26.37
2019-03-24T06:23:16.578Z,23.65
2019-03-24T06:25:45.384Z,23.98
2019-03-24T06:28:14.164Z,32.30
2019-03-24T06:30:45.069Z,24.63
2019-03-24T06:33:13.814Z,26.75
2019-03-24T06:35:42.785Z,30.85
2019-03-24T06:38:12.222Z,26.15
2019-03-24T06:40:41.016Z,29.12
2019-03-24T06:43:11.372Z,27.02
2019-03-24T06:45:39.870Z,46.85
2019-03-24T06:48:08.706Z,23.35
2019-03-24T06:50:37.610Z,29.40
2019-03-24T06:53:06.457Z,31.75
2019-03-24T06:55:35.193Z,18.10
2019-03-24T06:58:04.043Z,23.80
2019-03-24T07:00:34.208Z,30.25
2019-03-24T07:03:04.594Z,25.05
2019-03-24T07:05:33.483Z,21.73
2019-03-24T07:08:02.263Z,28.85
2019-03-24T07:10:30.788Z,28.73
2019-03-24T07:12:59.270Z,26.87
2019-03-24T07:15:29.536Z,27.50
2019-03-24T07:18:08.143Z,20.08
2019-03-24T07:20:29.994Z,30.48
2019-03-24T07:22:58.735Z,32.28
2019-03-24T07:25:27.248Z,29.80
2019-03-24T07:27:58.781Z,18.85
2019-03-24T07:30:28.793Z,26.82
2019-03-24T07:32:57.910Z,23.62
2019-03-24T07:35:28.205Z,25.02
2019-03-24T07:37:57.911Z,23.18
2019-03-24T07:40:26.756Z,28.30
2019-03-24T07:42:55.494Z,26.75
2019-03-24T07:45:24.310Z,25.00
2019-03-24T07:47:53.544Z,24.75
2019-03-24T07:50:23.541Z,24.00
2019-03-24T07:52:51.997Z,25.37
2019-03-24T07:55:21.772Z,22.87
2019-03-24T07:57:50.569Z,20.77
2019-03-24T08:00:24.831Z,23.45
2019-03-24T08:02:54.238Z,35.45
2019-03-24T08:05:23.264Z,22.20
2019-03-24T08:07:51.820Z,25.88
2019-03-24T08:10:20.620Z,23.00
2019-03-24T08:12:49.970Z,17.95
2019-03-24T08:15:18.489Z,23.15
2019-03-24T08:17:47.044Z,26.20
2019-03-24T08:20:15.541Z,22.73
2019-03-24T08:22:44.018Z,25.32
2019-03-24T08:25:12.929Z,24.85
2019-03-24T08:27:41.438Z,27.17
2019-03-24T08:30:11.037Z,28.42
2019-03-24T08:32:40.927Z,20.60
2019-03-24T08:35:10.123Z,20.95
2019-03-24T08:37:40.128Z,20.00
2019-03-24T08:40:08.815Z,22.27
2019-03-24T08:42:37.881Z,24.90
2019-03-24T08:45:08.444Z,22.05
2019-03-24T08:47:36.903Z,25.32
2019-03-24T08:50:09.875Z,23.52
2019-03-24T08:52:41.418Z,24.23
2019-03-24T08:55:10.075Z,23.05
2019-03-24T08:57:38.998Z,17.95
2019-03-24T09:00:07.893Z,17.05
2019-03-24T09:02:38.251Z,20.95
2019-03-24T09:05:07.169Z,26.30
2019-03-24T09:07:35.981Z,19.37
2019-03-24T09:10:06.209Z,26.30
2019-03-24T09:12:34.684Z,18.85
2019-03-24T09:15:03.947Z,19.15
2019-03-24T09:17:32.825Z,22.45
2019-03-24T09:20:04.580Z,21.02
2019-03-24T09:22:33.252Z,19.12
2019-03-24T09:25:05.012Z,10.88
2019-03-24T09:27:33.564Z,17.20
2019-03-24T09:30:02.453Z,19.80
2019-03-24T09:32:30.922Z,15.23
2019-03-24T09:34:59.375Z,22.48
2019-03-24T09:37:28.215Z,15.15
2019-03-24T09:39:57.483Z,20.90
2019-03-24T09:42:25.957Z,13.53
2019-03-24T09:44:54.414Z,11.40
2019-03-24T09:47:23.125Z,12.70
2019-03-24T09:49:51.639Z,12.45
2019-03-24T09:52:20.272Z,11.85
2019-03-24T09:54:49.085Z,11.73
2019-03-24T09:57:17.877Z,11.88
2019-03-24T09:59:46.321Z,9.23
2019-03-24T10:02:16.702Z,10.88
2019-03-24T10:04:45.673Z,13.45
2019-03-24T10:07:14.799Z,10.68
2019-03-24T10:09:43.289Z,9.55
2019-03-24T10:12:13.182Z,8.93
2019-03-24T10:14:41.706Z,9.28
2019-03-24T10:17:10.182Z,12.43
2019-03-24T10:19:38.860Z,10.32
2019-03-24T10:22:08.429Z,14.63
2019-03-24T10:24:36.879Z,9.85
2019-03-24T10:27:08.645Z,13.83
2019-03-24T10:29:37.119Z,10.48
2019-03-24T10:32:05.638Z,9.23
2019-03-24T10:34:35.433Z,8.55
2019-03-24T10:37:03.896Z,10.08
2019-03-24T10:39:33.891Z,12.78
2019-03-24T10:42:05.217Z,13.10
2019-03-24T10:44:33.991Z,11.00
2019-03-24T10:47:02.561Z,8.60
2019-03-24T10:49:31.288Z,16.05
2019-03-24T10:51:59.758Z,7.53
2019-03-24T10:54:28.255Z,14.03
2019-03-24T10:56:57.073Z,8.90
2019-03-24T10:59:28.372Z,10.13
2019-03-24T11:01:57.236Z,8.53
2019-03-24T11:04:26.089Z,8.88
2019-03-24T11:06:54.608Z,7.80
2019-03-24T11:09:23.091Z,17.17
2019-03-24T11:11:51.904Z,8.23
2019-03-24T11:14:20.387Z,13.30
2019-03-24T11:16:48.890Z,9.13
2019-03-24T11:19:17.414Z,10.55
2019-03-24T11:21:46.160Z,9.25
2019-03-24T11:24:14.855Z,15.50
2019-03-24T11:26:43.320Z,9.38
2019-03-24T11:29:12.567Z,8.40
2019-03-24T11:31:42.622Z,9.55
2019-03-24T11:34:11.465Z,11.45
2019-03-24T11:36:39.956Z,11.75
2019-03-24T11:39:08.506Z,9.93
2019-03-24T11:41:37.392Z,8.90
2019-03-24T11:44:06.220Z,7.85
2019-03-24T11:46:34.936Z,14.73
2019-03-24T11:49:03.466Z,14.90
2019-03-24T11:51:31.936Z,9.13
2019-03-24T11:54:00.380Z,11.00
2019-03-24T11:56:29.088Z,15.70
2019-03-24T11:58:58.027Z,13.15
2019-03-24T12:01:34.289Z,9.78
2019-03-24T12:03:57.147Z,10.05
2019-03-24T12:06:25.631Z,15.30
2019-03-24T12:08:54.081Z,14.70
2019-03-24T12:11:23.565Z,11.65
2019-03-24T12:13:52.389Z,12.82
2019-03-24T12:16:20.842Z,9.78
2019-03-24T12:18:49.293Z,9.25
2019-03-24T12:21:19.409Z,9.35
2019-03-24T12:23:47.861Z,16.87
2019-03-24T12:26:16.319Z,11.83
2019-03-24T12:28:44.878Z,15.88
2019-03-24T12:31:13.334Z,15.38
2019-03-24T12:33:43.424Z,8.83
2019-03-24T12:36:11.916Z,11.38
2019-03-24T12:38:40.376Z,10.38
2019-03-24T12:41:10.618Z,11.22
2019-03-24T12:43:39.087Z,10.25
2019-03-24T12:46:07.989Z,12.33
2019-03-24T12:48:36.523Z,16.50
2019-03-24T12:51:05.011Z,7.90
2019-03-24T12:53:33.521Z,9.68
2019-03-24T12:56:01.964Z,12.63
2019-03-24T12:58:30.446Z,12.43
2019-03-24T13:01:00.441Z,8.65
2019-03-24T13:03:29.144Z,9.70
2019-03-24T13:06:00.659Z,7.08
2019-03-24T13:08:29.118Z,12.90
2019-03-24T13:10:59.669Z,10.53
2019-03-24T13:13:28.456Z,6.83
2019-03-24T13:15:58.110Z,5.53
2019-03-24T13:18:26.668Z,8.08
2019-03-24T13:20:55.460Z,6.28
2019-03-24T13:23:24.318Z,8.93
2019-03-24T13:25:55.448Z,5.03
2019-03-24T13:28:24.321Z,9.15
2019-03-24T13:30:52.846Z,6.05
2019-03-24T13:33:23.519Z,8.60
2019-03-24T13:35:53.995Z,5.72
2019-03-24T13:38:23.295Z,9.23
2019-03-24T13:40:52.154Z,10.78
2019-03-24T13:43:21.005Z,11.18
2019-03-24T13:45:49.637Z,8.50
2019-03-24T13:48:18.852Z,8.00
2019-03-24T13:50:50.271Z,8.88
2019-03-24T13:53:20.394Z,6.42
2019-03-24T13:55:49.191Z,10.43
2019-03-24T13:58:21.283Z,9.48
2019-03-24T14:00:52.812Z,8.40
2019-03-24T14:03:22.097Z,9.30
2019-03-24T14:05:50.881Z,9.25
2019-03-24T14:08:19.342Z,6.75
2019-03-24T14:10:47.825Z,5.90
2019-03-24T14:13:17.271Z,7.47
2019-03-24T14:15:45.717Z,6.72
2019-03-24T14:18:14.191Z,13.05
2019-03-24T14:20:45.798Z,8.95
2019-03-24T14:23:14.637Z,8.53
2019-03-24T14:25:43.114Z,8.28
2019-03-24T14:28:12.569Z,7.90
2019-03-24T14:30:43.901Z,7.70
2019-03-24T14:33:12.609Z,8.53
2019-03-24T14:35:41.701Z,6.28
2019-03-24T14:38:12.805Z,16.75
2019-03-24T14:40:43.213Z,11.12
2019-03-24T14:43:12.299Z,8.53
2019-03-24T14:45:41.095Z,9.70
2019-03-24T14:48:10.074Z,6.33
2019-03-24T14:50:38.564Z,6.08
2019-03-24T14:53:08.095Z,8.98
2019-03-24T14:55:36.545Z,7.03
2019-03-24T14:58:05.121Z,7.97
2019-03-24T15:00:43.618Z,5.62
2019-03-24T15:03:12.200Z,8.28
2019-03-24T15:05:41.019Z,10.20
2019-03-24T15:08:09.943Z,7.60
2019-03-24T15:10:38.471Z,10.75
2019-03-24T15:13:07.274Z,9.03
2019-03-24T15:15:36.239Z,7.53
2019-03-24T15:18:05.276Z,10.20
2019-03-24T15:20:34.084Z,11.65
2019-03-24T15:23:02.640Z,8.40
2019-03-24T15:25:31.168Z,6.28
2019-03-24T15:28:01.638Z,10.90
2019-03-24T15:30:30.468Z,8.80
2019-03-24T15:33:00.178Z,7.92
2019-03-24T15:35:29.861Z,9.08
2019-03-24T15:38:08.155Z,12.35
2019-03-24T15:40:29.548Z,11.95
2019-03-24T15:42:59.537Z,11.33
2019-03-24T15:45:29.190Z,12.88
2019-03-24T15:47:57.978Z,11.10
2019-03-24T15:50:27.779Z,11.57
2019-03-24T15:52:56.394Z,12.47
2019-03-24T15:55:24.894Z,7.83
2019-03-24T15:57:53.347Z,12.03
2019-03-24T16:00:24.926Z,10.82
2019-03-24T16:02:54.928Z,7.85
2019-03-24T16:05:23.448Z,10.82
2019-03-24T16:07:52.206Z,17.12
2019-03-24T16:10:20.745Z,12.03
2019-03-24T16:12:49.478Z,10.08
2019-03-24T16:15:18.354Z,14.83
2019-03-24T16:17:51.851Z,15.95
2019-03-24T16:20:24.618Z,9.90
2019-03-24T16:22:53.060Z,17.70
2019-03-24T16:25:21.929Z,12.47
2019-03-24T16:27:52.370Z,16.87
2019-03-24T16:30:21.226Z,18.48
2019-03-24T16:32:49.688Z,11.43
2019-03-24T16:35:18.416Z,16.85
2019-03-24T16:37:46.876Z,15.08
2019-03-24T16:40:15.398Z,13.20
2019-03-24T16:42:44.235Z,14.15
2019-03-24T16:45:12.925Z,8.83
2019-03-24T16:47:41.446Z,6.25
2019-03-24T16:50:11.010Z,7.28
2019-03-24T16:52:39.546Z,15.20
2019-03-24T16:55:08.342Z,15.58
2019-03-24T16:57:37.047Z,11.65
2019-03-24T17:00:07.659Z,20.08
2019-03-24T17:02:36.168Z,15.58
2019-03-24T17:05:07.264Z,8.60
2019-03-24T17:07:35.876Z,3.98
2019-03-24T17:10:07.304Z,8.10
2019-03-24T17:12:35.948Z,10.90
2019-03-24T17:15:07.567Z,15.08
2019-03-24T17:17:38.428Z,8.40
2019-03-24T17:20:08.729Z,15.35
2019-03-24T17:22:37.532Z,14.07
2019-03-24T17:25:06.524Z,18.57
2019-03-24T17:27:35.396Z,13.18
2019-03-24T17:30:06.249Z,7.20
2019-03-24T17:32:35.038Z,18.35
2019-03-24T17:35:06.691Z,12.93
2019-03-24T17:37:35.492Z,17.98
2019-03-24T17:40:06.834Z,15.40
2019-03-24T17:42:37.049Z,14.93
2019-03-24T17:45:08.956Z,12.60
2019-03-24T17:47:39.011Z,12.82
2019-03-24T17:50:08.816Z,13.28
2019-03-24T17:52:37.613Z,16.77
2019-03-24T17:55:06.243Z,12.55
2019-03-24T17:57:34.904Z,16.35
2019-03-24T18:00:19.630Z,13.93
2019-03-24T18:02:54.267Z,18.17
2019-03-24T18:05:23.453Z,12.45
2019-03-24T18:07:52.243Z,8.58
2019-03-24T18:10:21.515Z,12.73
2019-03-24T18:12:50.297Z,10.13
2019-03-24T18:15:19.110Z,13.05
2019-03-24T18:17:47.746Z,16.15
2019-03-24T18:20:35.384Z,18.10
2019-03-24T18:23:04.729Z,11.55
2019-03-24T18:25:33.187Z,13.88
2019-03-24T18:28:05.750Z,10.70
2019-03-24T18:30:34.413Z,6.30
2019-03-24T18:33:05.045Z,10.50
2019-03-24T18:35:33.809Z,16.27
2019-03-24T18:38:04.817Z,14.47
2019-03-24T18:40:33.533Z,12.70
2019-03-24T18:43:02.041Z,15.88
2019-03-24T18:45:30.851Z,17.40
2019-03-24T18:48:00.599Z,13.58
2019-03-24T18:50:29.059Z,9.10
2019-03-24T18:52:59.759Z,14.63
2019-03-24T18:55:28.467Z,9.00
2019-03-24T18:57:57.380Z,10.72
2019-03-24T19:00:26.253Z,10.08
2019-03-24T19:02:55.449Z,12.60
2019-03-24T19:05:24.181Z,8.25
2019-03-24T19:07:53.045Z,14.43
2019-03-24T19:10:21.574Z,17.12
2019-03-24T19:12:50.061Z,6.50
2019-03-24T19:15:18.695Z,8.08
2019-03-24T19:17:47.151Z,16.60
2019-03-24T19:20:16.053Z,20.08
2019-03-24T19:22:44.828Z,11.25
2019-03-24T19:25:13.412Z,10.58
2019-03-24T19:27:42.623Z,9.85
2019-03-24T19:30:14.522Z,14.18
2019-03-24T19:32:43.209Z,11.70
2019-03-24T19:35:14.167Z,11.53
2019-03-24T19:37:47.169Z,13.18
2019-03-24T19:40:27.254Z,13.18
2019-03-24T19:42:57.450Z,14.28
2019-03-24T19:45:26.435Z,10.00
2019-03-24T19:47:59.214Z,19.27
2019-03-24T19:50:27.661Z,18.77
2019-03-24T19:52:56.151Z,16.62
2019-03-24T19:55:24.800Z,12.30
2019-03-24T19:57:56.339Z,13.85
2019-03-24T20:00:25.254Z,15.38
2019-03-24T20:02:55.129Z,13.30
2019-03-24T20:05:23.655Z,7.12
2019-03-24T20:07:52.501Z,21.75
2019-03-24T20:10:22.910Z,15.00
2019-03-24T20:12:51.356Z,17.27
2019-03-24T20:15:20.082Z,10.98
2019-03-24T20:17:48.864Z,19.52
2019-03-24T20:20:17.665Z,16.90
2019-03-24T20:22:55.840Z,10.75
2019-03-24T20:25:16.375Z,15.40
2019-03-24T20:27:44.827Z,16.05
2019-03-24T20:30:13.718Z,13.90
2019-03-24T20:32:42.435Z,10.28
2019-03-24T20:35:11.708Z,18.55
2019-03-24T20:37:40.491Z,16.50
2019-03-24T20:40:10.464Z,27.00
2019-03-24T20:42:38.907Z,15.98
2019-03-24T20:45:08.998Z,17.10
2019-03-24T20:47:37.548Z,14.33
2019-03-24T20:50:07.943Z,15.78
2019-03-24T20:52:38.137Z,18.23
2019-03-24T20:55:07.231Z,13.68
2019-03-24T20:57:35.925Z,19.25
2019-03-24T21:00:07.460Z,16.95
2019-03-24T21:02:36.056Z,17.00
2019-03-24T21:05:06.170Z,18.85
2019-03-24T21:07:34.610Z,17.32
2019-03-24T21:10:03.474Z,20.80
2019-03-24T21:12:35.164Z,18.77
2019-03-24T21:15:05.048Z,20.62
2019-03-24T21:17:33.904Z,20.90
2019-03-24T21:20:02.806Z,21.62
2019-03-24T21:22:32.563Z,17.10
2019-03-24T21:25:01.607Z,18.25
2019-03-24T21:27:30.496Z,15.40
2019-03-24T21:30:00.742Z,15.32
2019-03-24T21:32:29.246Z,18.65
2019-03-24T21:34:57.720Z,14.43
2019-03-24T21:37:26.545Z,21.87
2019-03-24T21:39:57.288Z,19.73
2019-03-24T21:42:25.816Z,10.90
2019-03-24T21:45:03.023Z,13.65
2019-03-24T21:47:35.050Z,21.20
2019-03-24T21:50:05.000Z,20.95
2019-03-24T21:52:33.458Z,17.37
2019-03-24T21:55:04.017Z,18.77
2019-03-24T21:57:32.800Z,21.57
2019-03-24T22:00:01.254Z,17.70
2019-03-24T22:02:29.712Z,22.02
2019-03-24T22:05:01.749Z,13.00
2019-03-24T22:07:32.776Z,18.27
2019-03-24T22:10:03.123Z,16.48
2019-03-24T22:12:32.032Z,23.05
2019-03-24T22:15:02.013Z,12.98
2019-03-24T22:17:31.412Z,17.32
2019-03-24T22:19:59.985Z,18.67
2019-03-24T22:22:28.469Z,20.68
2019-03-24T22:25:00.358Z,24.35
2019-03-24T22:27:30.390Z,15.70
2019-03-24T22:29:59.050Z,20.57
2019-03-24T22:32:27.500Z,16.42
2019-03-24T22:34:57.808Z,21.75
2019-03-24T22:37:26.634Z,23.18
2019-03-24T22:39:55.980Z,13.83
2019-03-24T22:42:26.432Z,22.87
2019-03-24T22:44:56.173Z,15.93
2019-03-24T22:47:24.605Z,16.67
2019-03-24T22:49:53.305Z,13.72
2019-03-24T22:52:22.128Z,22.10
2019-03-24T22:54:50.926Z,17.25
2019-03-24T22:57:20.584Z,20.45
2019-03-24T22:59:49.378Z,22.10
2019-03-24T23:02:18.194Z,16.67
2019-03-24T23:04:47.069Z,16.82
2019-03-24T23:07:15.990Z,13.75
2019-03-24T23:09:44.873Z,19.25
2019-03-24T23:12:13.637Z,18.70
2019-03-24T23:14:42.397Z,19.40
2019-03-24T23:17:12.733Z,16.70
2019-03-24T23:19:41.196Z,22.62
2019-03-24T23:22:09.642Z,15.88
2019-03-24T23:24:38.412Z,19.55
2019-03-24T23:27:07.241Z,16.37
2019-03-24T23:29:36.726Z,19.45
2019-03-24T23:32:05.505Z,23.57
2019-03-24T23:34:33.969Z,10.85
2019-03-24T23:37:02.727Z,19.32
2019-03-24T23:39:31.483Z,15.60
2019-03-24T23:42:00.013Z,20.72
2019-03-24T23:44:30.435Z,18.85
2019-03-24T23:46:58.955Z,16.75
2019-03-24T23:49:27.483Z,16.48
2019-03-24T23:51:58.930Z,11.40
2019-03-24T23:54:27.782Z,23.32
2019-03-24T23:56:57.845Z,29.23
2019-03-24T23:59:26.617Z,24.92
